sensor_id;sensor_type;location;lat;lon;timestamp;P1;durP1;ratioP1;P2;durP2;ratioP2
10260;SDS011;5175;42.606;23.388;2023-04-24T00:02:01;6.57;;;5.07;;
10260;SDS011;5175;42.606;23.388;2023-04-24T00:04:29;5.43;;;4.97;;
10260;SDS011;5175;42.606;23.388;2023-04-24T00:06:58;7.47;;;5.03;;
10260;SDS011;5175;42.606;23.388;2023-04-24T00:09:25;8.23;;;5.70;;
10260;SDS011;5175;42.606;23.388;2023-04-24T00:11:52;6.00;;;5.30;;
10260;SDS011;5175;42.606;23.388;2023-04-24T00:14:19;6.37;;;5.40;;
10260;SDS011;5175;42.606;23.388;2023-04-24T00:16:46;5.67;;;4.93;;
10260;SDS011;5175;42.606;23.388;2023-04-24T00:19:13;6.10;;;5.50;;
10260;SDS011;5175;42.606;23.388;2023-04-24T00:21:40;7.07;;;5.43;;
10260;SDS011;5175;42.606;23.388;2023-04-24T00:24:09;5.77;;;5.20;;
10260;SDS011;5175;42.606;23.388;2023-04-24T00:26:36;6.33;;;5.17;;
10260;SDS011;5175;42.606;23.388;2023-04-24T00:29:03;6.33;;;5.33;;
10260;SDS011;5175;42.606;23.388;2023-04-24T00:31:29;5.90;;;5.10;;
10260;SDS011;5175;42.606;23.388;2023-04-24T00:33:57;7.13;;;5.20;;
10260;SDS011;5175;42.606;23.388;2023-04-24T00:36:24;7.10;;;5.47;;
10260;SDS011;5175;42.606;23.388;2023-04-24T00:38:52;6.33;;;4.93;;
10260;SDS011;5175;42.606;23.388;2023-04-24T00:41:20;7.90;;;5.43;;
10260;SDS011;5175;42.606;23.388;2023-04-24T00:43:47;7.30;;;5.60;;
10260;SDS011;5175;42.606;23.388;2023-04-24T00:46:14;6.67;;;5.63;;
10260;SDS011;5175;42.606;23.388;2023-04-24T00:48:42;7.67;;;6.10;;
10260;SDS011;5175;42.606;23.388;2023-04-24T00:51:10;10.53;;;5.87;;
10260;SDS011;5175;42.606;23.388;2023-04-24T00:53:36;10.43;;;6.30;;
10260;SDS011;5175;42.606;23.388;2023-04-24T00:56:03;6.43;;;5.80;;
10260;SDS011;5175;42.606;23.388;2023-04-24T00:58:33;8.73;;;6.10;;
10260;SDS011;5175;42.606;23.388;2023-04-24T01:01:00;7.17;;;6.23;;
10260;SDS011;5175;42.606;23.388;2023-04-24T01:03:28;9.43;;;7.90;;
10260;SDS011;5175;42.606;23.388;2023-04-24T01:05:56;9.50;;;8.13;;
10260;SDS011;5175;42.606;23.388;2023-04-24T01:08:24;9.77;;;8.77;;
10260;SDS011;5175;42.606;23.388;2023-04-24T01:10:52;10.77;;;9.20;;
10260;SDS011;5175;42.606;23.388;2023-04-24T01:13:20;10.70;;;9.40;;
10260;SDS011;5175;42.606;23.388;2023-04-24T01:15:48;13.70;;;9.70;;
10260;SDS011;5175;42.606;23.388;2023-04-24T01:18:15;12.07;;;9.30;;
10260;SDS011;5175;42.606;23.388;2023-04-24T01:20:42;9.77;;;8.77;;
10260;SDS011;5175;42.606;23.388;2023-04-24T01:23:13;11.40;;;9.00;;
10260;SDS011;5175;42.606;23.388;2023-04-24T01:25:40;9.77;;;8.77;;
10260;SDS011;5175;42.606;23.388;2023-04-24T01:28:07;12.30;;;8.80;;
10260;SDS011;5175;42.606;23.388;2023-04-24T01:30:34;10.63;;;9.53;;
10260;SDS011;5175;42.606;23.388;2023-04-24T01:33:01;12.43;;;9.60;;
10260;SDS011;5175;42.606;23.388;2023-04-24T01:35:28;9.97;;;8.97;;
10260;SDS011;5175;42.606;23.388;2023-04-24T01:37:55;11.57;;;9.90;;
10260;SDS011;5175;42.606;23.388;2023-04-24T01:40:24;10.90;;;9.80;;
10260;SDS011;5175;42.606;23.388;2023-04-24T01:42:51;12.83;;;9.53;;
10260;SDS011;5175;42.606;23.388;2023-04-24T01:45:18;11.07;;;8.67;;
10260;SDS011;5175;42.606;23.388;2023-04-24T01:47:45;9.47;;;8.23;;
10260;SDS011;5175;42.606;23.388;2023-04-24T01:50:14;7.90;;;7.10;;
10260;SDS011;5175;42.606;23.388;2023-04-24T01:52:41;8.53;;;7.70;;
10260;SDS011;5175;42.606;23.388;2023-04-24T01:55:08;8.50;;;7.70;;
10260;SDS011;5175;42.606;23.388;2023-04-24T01:57:37;8.63;;;7.83;;
10260;SDS011;5175;42.606;23.388;2023-04-24T02:00:05;9.00;;;8.20;;
10260;SDS011;5175;42.606;23.388;2023-04-24T02:02:33;9.57;;;8.60;;
10260;SDS011;5175;42.606;23.388;2023-04-24T02:05:00;10.03;;;9.00;;
10260;SDS011;5175;42.606;23.388;2023-04-24T02:07:27;10.57;;;8.97;;
10260;SDS011;5175;42.606;23.388;2023-04-24T02:09:54;11.10;;;9.23;;
10260;SDS011;5175;42.606;23.388;2023-04-24T02:12:21;12.23;;;9.03;;
10260;SDS011;5175;42.606;23.388;2023-04-24T02:14:50;11.13;;;9.40;;
10260;SDS011;5175;42.606;23.388;2023-04-24T02:17:17;11.83;;;10.60;;
10260;SDS011;5175;42.606;23.388;2023-04-24T02:19:44;12.60;;;10.93;;
10260;SDS011;5175;42.606;23.388;2023-04-24T02:22:11;12.77;;;11.43;;
10260;SDS011;5175;42.606;23.388;2023-04-24T02:24:38;12.10;;;10.90;;
10260;SDS011;5175;42.606;23.388;2023-04-24T02:27:05;12.77;;;10.87;;
10260;SDS011;5175;42.606;23.388;2023-04-24T02:29:32;11.83;;;10.63;;
10260;SDS011;5175;42.606;23.388;2023-04-24T02:32:01;12.37;;;10.70;;
10260;SDS011;5175;42.606;23.388;2023-04-24T02:34:28;11.83;;;10.63;;
10260;SDS011;5175;42.606;23.388;2023-04-24T02:36:54;12.03;;;10.67;;
10260;SDS011;5175;42.606;23.388;2023-04-24T02:39:21;13.83;;;10.83;;
10260;SDS011;5175;42.606;23.388;2023-04-24T02:41:48;11.23;;;10.13;;
10260;SDS011;5175;42.606;23.388;2023-04-24T02:44:15;11.30;;;10.20;;
10260;SDS011;5175;42.606;23.388;2023-04-24T02:46:42;11.17;;;9.93;;
10260;SDS011;5175;42.606;23.388;2023-04-24T02:49:11;11.13;;;9.97;;
10260;SDS011;5175;42.606;23.388;2023-04-24T02:51:38;11.93;;;10.63;;
10260;SDS011;5175;42.606;23.388;2023-04-24T02:54:06;11.73;;;10.60;;
10260;SDS011;5175;42.606;23.388;2023-04-24T02:56:34;13.13;;;11.20;;
10260;SDS011;5175;42.606;23.388;2023-04-24T02:59:01;11.30;;;9.80;;
10260;SDS011;5175;42.606;23.388;2023-04-24T03:01:28;12.30;;;11.00;;
10260;SDS011;5175;42.606;23.388;2023-04-24T03:03:55;11.73;;;10.30;;
10260;SDS011;5175;42.606;23.388;2023-04-24T03:06:24;11.77;;;9.70;;
10260;SDS011;5175;42.606;23.388;2023-04-24T03:08:52;10.87;;;9.87;;
10260;SDS011;5175;42.606;23.388;2023-04-24T03:11:19;11.20;;;10.10;;
10260;SDS011;5175;42.606;23.388;2023-04-24T03:13:46;10.90;;;9.80;;
10260;SDS011;5175;42.606;23.388;2023-04-24T03:16:13;11.60;;;10.40;;
10260;SDS011;5175;42.606;23.388;2023-04-24T03:18:39;10.97;;;9.87;;
10260;SDS011;5175;42.606;23.388;2023-04-24T03:21:06;10.70;;;9.60;;
10260;SDS011;5175;42.606;23.388;2023-04-24T03:23:35;10.80;;;9.67;;
10260;SDS011;5175;42.606;23.388;2023-04-24T03:26:02;10.57;;;9.47;;
10260;SDS011;5175;42.606;23.388;2023-04-24T03:28:29;11.23;;;10.07;;
10260;SDS011;5175;42.606;23.388;2023-04-24T03:30:56;11.40;;;10.37;;
10260;SDS011;5175;42.606;23.388;2023-04-24T03:33:23;11.30;;;9.93;;
10260;SDS011;5175;42.606;23.388;2023-04-24T03:35:50;11.70;;;9.67;;
10260;SDS011;5175;42.606;23.388;2023-04-24T03:38:17;12.57;;;10.40;;
10260;SDS011;5175;42.606;23.388;2023-04-24T03:40:46;10.87;;;9.73;;
10260;SDS011;5175;42.606;23.388;2023-04-24T03:43:12;11.57;;;9.27;;
10260;SDS011;5175;42.606;23.388;2023-04-24T03:45:39;11.67;;;9.87;;
10260;SDS011;5175;42.606;23.388;2023-04-24T03:48:07;12.00;;;9.97;;
10260;SDS011;5175;42.606;23.388;2023-04-24T03:50:33;10.97;;;9.47;;
10260;SDS011;5175;42.606;23.388;2023-04-24T03:53:00;10.70;;;9.27;;
10260;SDS011;5175;42.606;23.388;2023-04-24T03:55:27;10.40;;;9.37;;
10260;SDS011;5175;42.606;23.388;2023-04-24T03:57:56;10.23;;;9.13;;
10260;SDS011;5175;42.606;23.388;2023-04-24T04:00:23;10.93;;;9.83;;
10260;SDS011;5175;42.606;23.388;2023-04-24T04:02:51;10.40;;;9.37;;
10260;SDS011;5175;42.606;23.388;2023-04-24T04:05:18;10.97;;;9.80;;
10260;SDS011;5175;42.606;23.388;2023-04-24T04:07:44;11.87;;;10.00;;
10260;SDS011;5175;42.606;23.388;2023-04-24T04:10:11;10.77;;;9.67;;
10260;SDS011;5175;42.606;23.388;2023-04-24T04:12:39;11.53;;;10.33;;
10260;SDS011;5175;42.606;23.388;2023-04-24T04:15:08;12.70;;;10.77;;
10260;SDS011;5175;42.606;23.388;2023-04-24T04:17:35;13.37;;;11.40;;
10260;SDS011;5175;42.606;23.388;2023-04-24T04:20:03;11.20;;;10.10;;
10260;SDS011;5175;42.606;23.388;2023-04-24T04:22:35;11.30;;;9.80;;
10260;SDS011;5175;42.606;23.388;2023-04-24T04:25:02;11.27;;;10.17;;
10260;SDS011;5175;42.606;23.388;2023-04-24T04:27:29;11.63;;;10.23;;
10260;SDS011;5175;42.606;23.388;2023-04-24T04:29:57;12.07;;;10.87;;
10260;SDS011;5175;42.606;23.388;2023-04-24T04:32:27;13.53;;;10.77;;
10260;SDS011;5175;42.606;23.388;2023-04-24T04:34:54;12.03;;;9.73;;
10260;SDS011;5175;42.606;23.388;2023-04-24T04:37:21;11.23;;;9.53;;
10260;SDS011;5175;42.606;23.388;2023-04-24T04:39:48;11.33;;;10.10;;
10260;SDS011;5175;42.606;23.388;2023-04-24T04:42:15;11.70;;;10.10;;
10260;SDS011;5175;42.606;23.388;2023-04-24T04:44:42;11.80;;;10.60;;
10260;SDS011;5175;42.606;23.388;2023-04-24T04:47:09;12.33;;;11.07;;
10260;SDS011;5175;42.606;23.388;2023-04-24T04:49:38;12.00;;;10.70;;
10260;SDS011;5175;42.606;23.388;2023-04-24T04:52:06;13.00;;;11.80;;
10260;SDS011;5175;42.606;23.388;2023-04-24T04:54:33;17.37;;;14.10;;
10260;SDS011;5175;42.606;23.388;2023-04-24T04:57:00;31.03;;;21.37;;
10260;SDS011;5175;42.606;23.388;2023-04-24T04:59:27;31.47;;;22.47;;
10260;SDS011;5175;42.606;23.388;2023-04-24T05:01:54;18.03;;;14.50;;
10260;SDS011;5175;42.606;23.388;2023-04-24T05:04:21;15.37;;;12.03;;
10260;SDS011;5175;42.606;23.388;2023-04-24T05:06:49;12.17;;;10.53;;
10260;SDS011;5175;42.606;23.388;2023-04-24T05:09:17;13.53;;;9.87;;
10260;SDS011;5175;42.606;23.388;2023-04-24T05:11:44;10.70;;;9.47;;
10260;SDS011;5175;42.606;23.388;2023-04-24T05:14:11;11.30;;;9.80;;
10260;SDS011;5175;42.606;23.388;2023-04-24T05:16:38;11.47;;;10.03;;
10260;SDS011;5175;42.606;23.388;2023-04-24T05:19:06;11.27;;;10.07;;
10260;SDS011;5175;42.606;23.388;2023-04-24T05:21:33;12.37;;;10.13;;
10260;SDS011;5175;42.606;23.388;2023-04-24T05:24:01;16.27;;;11.40;;
10260;SDS011;5175;42.606;23.388;2023-04-24T05:26:28;14.50;;;11.57;;
10260;SDS011;5175;42.606;23.388;2023-04-24T05:28:55;18.37;;;13.07;;
10260;SDS011;5175;42.606;23.388;2023-04-24T05:31:22;16.03;;;12.30;;
10260;SDS011;5175;42.606;23.388;2023-04-24T05:33:50;16.33;;;11.97;;
10260;SDS011;5175;42.606;23.388;2023-04-24T05:36:17;16.03;;;11.13;;
10260;SDS011;5175;42.606;23.388;2023-04-24T05:38:44;10.53;;;9.53;;
10260;SDS011;5175;42.606;23.388;2023-04-24T05:41:12;12.03;;;9.80;;
10260;SDS011;5175;42.606;23.388;2023-04-24T05:43:39;11.37;;;9.93;;
10260;SDS011;5175;42.606;23.388;2023-04-24T05:46:06;13.00;;;10.07;;
10260;SDS011;5175;42.606;23.388;2023-04-24T05:48:33;13.47;;;10.30;;
10260;SDS011;5175;42.606;23.388;2023-04-24T05:51:00;11.23;;;10.07;;
10260;SDS011;5175;42.606;23.388;2023-04-24T05:53:27;13.63;;;9.57;;
10260;SDS011;5175;42.606;23.388;2023-04-24T05:55:54;12.10;;;9.83;;
10260;SDS011;5175;42.606;23.388;2023-04-24T05:58:22;10.67;;;9.67;;
10260;SDS011;5175;42.606;23.388;2023-04-24T06:00:49;13.30;;;10.20;;
10260;SDS011;5175;42.606;23.388;2023-04-24T06:03:17;11.13;;;9.53;;
10260;SDS011;5175;42.606;23.388;2023-04-24T06:05:43;11.90;;;8.93;;
10260;SDS011;5175;42.606;23.388;2023-04-24T06:08:10;10.03;;;9.00;;
10260;SDS011;5175;42.606;23.388;2023-04-24T06:10:38;11.40;;;9.17;;
10260;SDS011;5175;42.606;23.388;2023-04-24T06:13:05;10.53;;;9.23;;
10260;SDS011;5175;42.606;23.388;2023-04-24T06:15:33;11.77;;;9.60;;
10260;SDS011;5175;42.606;23.388;2023-04-24T06:18:00;14.43;;;10.03;;
10260;SDS011;5175;42.606;23.388;2023-04-24T06:20:27;9.63;;;8.63;;
10260;SDS011;5175;42.606;23.388;2023-04-24T06:22:54;9.27;;;8.27;;
10260;SDS011;5175;42.606;23.388;2023-04-24T06:25:21;10.10;;;9.00;;
10260;SDS011;5175;42.606;23.388;2023-04-24T06:27:48;11.00;;;8.73;;
10260;SDS011;5175;42.606;23.388;2023-04-24T06:30:15;11.33;;;8.27;;
10260;SDS011;5175;42.606;23.388;2023-04-24T06:32:44;9.90;;;8.20;;
10260;SDS011;5175;42.606;23.388;2023-04-24T06:35:10;9.90;;;8.63;;
10260;SDS011;5175;42.606;23.388;2023-04-24T06:37:38;10.90;;;8.57;;
10260;SDS011;5175;42.606;23.388;2023-04-24T06:40:06;10.03;;;8.70;;
10260;SDS011;5175;42.606;23.388;2023-04-24T06:42:33;10.30;;;8.33;;
10260;SDS011;5175;42.606;23.388;2023-04-24T06:45:01;8.93;;;8.03;;
10260;SDS011;5175;42.606;23.388;2023-04-24T06:47:28;9.47;;;8.43;;
10260;SDS011;5175;42.606;23.388;2023-04-24T06:49:57;10.00;;;8.43;;
10260;SDS011;5175;42.606;23.388;2023-04-24T06:52:24;10.67;;;9.07;;
10260;SDS011;5175;42.606;23.388;2023-04-24T06:54:51;12.87;;;10.10;;
10260;SDS011;5175;42.606;23.388;2023-04-24T06:57:18;11.47;;;8.83;;
10260;SDS011;5175;42.606;23.388;2023-04-24T06:59:46;13.47;;;10.37;;
10260;SDS011;5175;42.606;23.388;2023-04-24T07:02:13;12.63;;;9.47;;
10260;SDS011;5175;42.606;23.388;2023-04-24T07:04:40;15.47;;;10.13;;
10260;SDS011;5175;42.606;23.388;2023-04-24T07:07:08;11.60;;;10.17;;
10260;SDS011;5175;42.606;23.388;2023-04-24T07:09:38;12.53;;;9.33;;
10260;SDS011;5175;42.606;23.388;2023-04-24T07:12:07;12.20;;;9.73;;
10260;SDS011;5175;42.606;23.388;2023-04-24T07:14:35;12.17;;;9.60;;
10260;SDS011;5175;42.606;23.388;2023-04-24T07:17:02;12.70;;;9.53;;
10260;SDS011;5175;42.606;23.388;2023-04-24T07:19:30;11.17;;;9.67;;
10260;SDS011;5175;42.606;23.388;2023-04-24T07:21:57;12.27;;;9.53;;
10260;SDS011;5175;42.606;23.388;2023-04-24T07:24:25;13.60;;;9.23;;
10260;SDS011;5175;42.606;23.388;2023-04-24T07:26:52;13.63;;;9.27;;
10260;SDS011;5175;42.606;23.388;2023-04-24T07:29:20;15.03;;;9.07;;
10260;SDS011;5175;42.606;23.388;2023-04-24T07:31:47;10.50;;;8.53;;
10260;SDS011;5175;42.606;23.388;2023-04-24T07:34:14;10.87;;;9.10;;
10260;SDS011;5175;42.606;23.388;2023-04-24T07:36:41;11.40;;;8.90;;
10260;SDS011;5175;42.606;23.388;2023-04-24T07:39:08;10.17;;;9.00;;
10260;SDS011;5175;42.606;23.388;2023-04-24T07:41:36;15.57;;;8.60;;
10260;SDS011;5175;42.606;23.388;2023-04-24T07:44:03;12.43;;;8.77;;
10260;SDS011;5175;42.606;23.388;2023-04-24T07:46:30;11.40;;;8.20;;
10260;SDS011;5175;42.606;23.388;2023-04-24T07:48:57;9.73;;;8.73;;
10260;SDS011;5175;42.606;23.388;2023-04-24T07:51:26;9.47;;;8.07;;
10260;SDS011;5175;42.606;23.388;2023-04-24T07:53:53;8.83;;;7.77;;
10260;SDS011;5175;42.606;23.388;2023-04-24T07:56:21;9.30;;;8.20;;
10260;SDS011;5175;42.606;23.388;2023-04-24T07:58:49;11.55;;;8.10;;
10260;SDS011;5175;42.606;23.388;2023-04-24T08:01:16;10.07;;;8.00;;
10260;SDS011;5175;42.606;23.388;2023-04-24T08:03:42;11.07;;;8.35;;
10260;SDS011;5175;42.606;23.388;2023-04-24T08:06:09;8.05;;;7.22;;
10260;SDS011;5175;42.606;23.388;2023-04-24T08:08:36;10.18;;;7.18;;
10260;SDS011;5175;42.606;23.388;2023-04-24T08:11:03;8.60;;;7.20;;
10260;SDS011;5175;42.606;23.388;2023-04-24T08:13:30;9.10;;;6.75;;
10260;SDS011;5175;42.606;23.388;2023-04-24T08:15:58;7.93;;;7.10;;
10260;SDS011;5175;42.606;23.388;2023-04-24T08:18:25;8.18;;;7.38;;
10260;SDS011;5175;42.606;23.388;2023-04-24T08:20:52;8.82;;;7.78;;
10260;SDS011;5175;42.606;23.388;2023-04-24T08:23:18;10.98;;;6.97;;
10260;SDS011;5175;42.606;23.388;2023-04-24T08:25:45;7.22;;;6.38;;
10260;SDS011;5175;42.606;23.388;2023-04-24T08:28:12;9.30;;;7.10;;
10260;SDS011;5175;42.606;23.388;2023-04-24T08:30:45;7.97;;;6.55;;
10260;SDS011;5175;42.606;23.388;2023-04-24T08:33:13;9.23;;;7.70;;
10260;SDS011;5175;42.606;23.388;2023-04-24T08:35:40;7.40;;;6.75;;
10260;SDS011;5175;42.606;23.388;2023-04-24T08:38:07;7.25;;;6.32;;
10260;SDS011;5175;42.606;23.388;2023-04-24T08:40:34;7.13;;;6.43;;
10260;SDS011;5175;42.606;23.388;2023-04-24T08:43:01;8.32;;;6.60;;
10260;SDS011;5175;42.606;23.388;2023-04-24T08:45:29;6.50;;;5.90;;
10260;SDS011;5175;42.606;23.388;2023-04-24T08:47:56;6.43;;;5.90;;
10260;SDS011;5175;42.606;23.388;2023-04-24T08:50:26;6.25;;;5.63;;
10260;SDS011;5175;42.606;23.388;2023-04-24T08:52:53;6.55;;;5.95;;
10260;SDS011;5175;42.606;23.388;2023-04-24T08:55:20;7.07;;;6.40;;
10260;SDS011;5175;42.606;23.388;2023-04-24T08:57:50;9.52;;;6.00;;
10260;SDS011;5175;42.606;23.388;2023-04-24T09:00:18;6.75;;;5.88;;
10260;SDS011;5175;42.606;23.388;2023-04-24T09:02:46;6.78;;;5.75;;
10260;SDS011;5175;42.606;23.388;2023-04-24T09:05:16;6.50;;;5.75;;
10260;SDS011;5175;42.606;23.388;2023-04-24T09:07:46;6.85;;;5.50;;
10260;SDS011;5175;42.606;23.388;2023-04-24T09:10:19;6.20;;;5.60;;
10260;SDS011;5175;42.606;23.388;2023-04-24T09:12:47;6.85;;;5.45;;
10260;SDS011;5175;42.606;23.388;2023-04-24T09:15:15;7.43;;;6.10;;
10260;SDS011;5175;42.606;23.388;2023-04-24T09:17:43;6.63;;;5.97;;
10260;SDS011;5175;42.606;23.388;2023-04-24T09:20:10;7.32;;;5.43;;
10260;SDS011;5175;42.606;23.388;2023-04-24T09:22:37;6.30;;;5.72;;
10260;SDS011;5175;42.606;23.388;2023-04-24T09:25:06;6.13;;;5.53;;
10260;SDS011;5175;42.606;23.388;2023-04-24T09:27:34;6.38;;;5.40;;
10260;SDS011;5175;42.606;23.388;2023-04-24T09:30:01;6.63;;;5.97;;
10260;SDS011;5175;42.606;23.388;2023-04-24T09:32:29;7.45;;;5.78;;
10260;SDS011;5175;42.606;23.388;2023-04-24T09:35:07;6.82;;;5.80;;
10260;SDS011;5175;42.606;23.388;2023-04-24T09:37:36;6.93;;;5.72;;
10260;SDS011;5175;42.606;23.388;2023-04-24T09:40:08;5.82;;;5.22;;
10260;SDS011;5175;42.606;23.388;2023-04-24T09:42:39;6.60;;;5.88;;
10260;SDS011;5175;42.606;23.388;2023-04-24T09:45:10;5.72;;;5.18;;
10260;SDS011;5175;42.606;23.388;2023-04-24T09:47:37;8.38;;;5.15;;
10260;SDS011;5175;42.606;23.388;2023-04-24T09:50:12;5.78;;;5.28;;
10260;SDS011;5175;42.606;23.388;2023-04-24T09:52:40;6.63;;;5.18;;
10260;SDS011;5175;42.606;23.388;2023-04-24T09:55:13;6.00;;;5.20;;
10260;SDS011;5175;42.606;23.388;2023-04-24T09:57:47;5.32;;;4.90;;
10260;SDS011;5175;42.606;23.388;2023-04-24T10:00:18;7.10;;;5.53;;
10260;SDS011;5175;42.606;23.388;2023-04-24T10:02:51;6.22;;;5.00;;
10260;SDS011;5175;42.606;23.388;2023-04-24T10:05:23;7.22;;;4.93;;
10260;SDS011;5175;42.606;23.388;2023-04-24T10:07:51;5.82;;;5.20;;
10260;SDS011;5175;42.606;23.388;2023-04-24T10:10:19;5.10;;;4.60;;
10260;SDS011;5175;42.606;23.388;2023-04-24T10:12:46;5.88;;;5.05;;
10260;SDS011;5175;42.606;23.388;2023-04-24T10:15:14;8.43;;;4.70;;
10260;SDS011;5175;42.606;23.388;2023-04-24T10:17:45;6.68;;;4.90;;
10260;SDS011;5175;42.606;23.388;2023-04-24T10:20:17;6.75;;;4.72;;
10260;SDS011;5175;42.606;23.388;2023-04-24T10:22:45;6.15;;;4.70;;
10260;SDS011;5175;42.606;23.388;2023-04-24T10:25:16;5.30;;;4.78;;
10260;SDS011;5175;42.606;23.388;2023-04-24T10:27:46;7.47;;;4.63;;
10260;SDS011;5175;42.606;23.388;2023-04-24T10:30:14;5.15;;;4.40;;
10260;SDS011;5175;42.606;23.388;2023-04-24T10:32:41;5.15;;;4.65;;
10260;SDS011;5175;42.606;23.388;2023-04-24T10:35:08;5.35;;;4.38;;
10260;SDS011;5175;42.606;23.388;2023-04-24T10:37:36;4.70;;;4.30;;
10260;SDS011;5175;42.606;23.388;2023-04-24T10:40:05;5.82;;;4.45;;
10260;SDS011;5175;42.606;23.388;2023-04-24T10:42:34;5.32;;;4.47;;
10260;SDS011;5175;42.606;23.388;2023-04-24T10:45:06;4.82;;;4.32;;
10260;SDS011;5175;42.606;23.388;2023-04-24T10:47:39;7.03;;;4.32;;
10260;SDS011;5175;42.606;23.388;2023-04-24T10:50:08;5.93;;;4.55;;
10260;SDS011;5175;42.606;23.388;2023-04-24T10:52:45;5.07;;;4.50;;
10260;SDS011;5175;42.606;23.388;2023-04-24T10:55:14;4.63;;;4.20;;
10260;SDS011;5175;42.606;23.388;2023-04-24T11:00:30;5.32;;;4.20;;
10260;SDS011;5175;42.606;23.388;2023-04-24T11:02:58;4.53;;;4.13;;
10260;SDS011;5175;42.606;23.388;2023-04-24T11:08:22;7.72;;;4.20;;
10260;SDS011;5175;42.606;23.388;2023-04-24T11:10:55;5.05;;;3.97;;
10260;SDS011;5175;42.606;23.388;2023-04-24T11:13:27;6.07;;;3.80;;
10260;SDS011;5175;42.606;23.388;2023-04-24T11:16:28;7.15;;;4.00;;
10260;SDS011;5175;42.606;23.388;2023-04-24T11:19:00;6.13;;;4.05;;
10260;SDS011;5175;42.606;23.388;2023-04-24T11:21:30;5.00;;;4.28;;
10260;SDS011;5175;42.606;23.388;2023-04-24T11:23:58;7.28;;;4.40;;
10260;SDS011;5175;42.606;23.388;2023-04-24T11:26:25;4.40;;;4.00;;
10260;SDS011;5175;42.606;23.388;2023-04-24T11:29:05;6.60;;;5.47;;
10260;SDS011;5175;42.606;23.388;2023-04-24T11:31:35;6.10;;;4.18;;
10260;SDS011;5175;42.606;23.388;2023-04-24T11:34:09;4.10;;;2.53;;
10260;SDS011;5175;42.606;23.388;2023-04-24T11:36:38;4.07;;;2.95;;
10260;SDS011;5175;42.606;23.388;2023-04-24T11:39:05;2.75;;;2.45;;
10260;SDS011;5175;42.606;23.388;2023-04-24T11:41:35;3.72;;;2.47;;
10260;SDS011;5175;42.606;23.388;2023-04-24T11:44:02;3.10;;;2.53;;
10260;SDS011;5175;42.606;23.388;2023-04-24T11:46:32;4.30;;;3.85;;
10260;SDS011;5175;42.606;23.388;2023-04-24T11:49:00;5.73;;;4.20;;
10260;SDS011;5175;42.606;23.388;2023-04-24T11:51:27;8.93;;;5.30;;
10260;SDS011;5175;42.606;23.388;2023-04-24T11:53:54;3.53;;;3.23;;
10260;SDS011;5175;42.606;23.388;2023-04-24T11:56:22;5.60;;;5.10;;
10260;SDS011;5175;42.606;23.388;2023-04-24T11:58:51;6.20;;;5.60;;
10260;SDS011;5175;42.606;23.388;2023-04-24T12:01:18;5.87;;;5.27;;
10260;SDS011;5175;42.606;23.388;2023-04-24T12:03:47;7.43;;;5.63;;
10260;SDS011;5175;42.606;23.388;2023-04-24T12:06:17;5.70;;;5.20;;
10260;SDS011;5175;42.606;23.388;2023-04-24T12:08:48;7.03;;;6.43;;
10260;SDS011;5175;42.606;23.388;2023-04-24T12:11:15;5.77;;;5.27;;
10260;SDS011;5175;42.606;23.388;2023-04-24T12:13:45;6.23;;;5.73;;
10260;SDS011;5175;42.606;23.388;2023-04-24T12:16:12;6.17;;;5.30;;
10260;SDS011;5175;42.606;23.388;2023-04-24T12:18:42;7.30;;;6.10;;
10260;SDS011;5175;42.606;23.388;2023-04-24T12:21:19;10.20;;;8.20;;
10260;SDS011;5175;42.606;23.388;2023-04-24T12:23:47;8.30;;;7.07;;
10260;SDS011;5175;42.606;23.388;2023-04-24T12:26:16;11.57;;;7.40;;
10260;SDS011;5175;42.606;23.388;2023-04-24T12:28:46;6.17;;;5.27;;
10260;SDS011;5175;42.606;23.388;2023-04-24T12:31:14;6.10;;;5.50;;
10260;SDS011;5175;42.606;23.388;2023-04-24T12:33:41;7.63;;;6.33;;
10260;SDS011;5175;42.606;23.388;2023-04-24T12:36:09;6.47;;;5.73;;
10260;SDS011;5175;42.606;23.388;2023-04-24T12:38:42;6.60;;;6.00;;
10260;SDS011;5175;42.606;23.388;2023-04-24T12:41:12;7.30;;;6.60;;
10260;SDS011;5175;42.606;23.388;2023-04-24T12:43:50;8.87;;;6.67;;
10260;SDS011;5175;42.606;23.388;2023-04-24T12:46:17;9.57;;;7.10;;
10260;SDS011;5175;42.606;23.388;2023-04-24T12:48:44;7.57;;;6.83;;
10260;SDS011;5175;42.606;23.388;2023-04-24T12:51:11;7.73;;;6.93;;
10260;SDS011;5175;42.606;23.388;2023-04-24T12:53:40;7.40;;;6.70;;
10260;SDS011;5175;42.606;23.388;2023-04-24T12:56:06;9.13;;;7.27;;
10260;SDS011;5175;42.606;23.388;2023-04-24T12:58:33;8.43;;;7.57;;
10260;SDS011;5175;42.606;23.388;2023-04-24T13:01:00;7.27;;;6.57;;
10260;SDS011;5175;42.606;23.388;2023-04-24T13:03:27;7.27;;;6.23;;
10260;SDS011;5175;42.606;23.388;2023-04-24T13:05:54;7.43;;;6.50;;
10260;SDS011;5175;42.606;23.388;2023-04-24T13:08:21;6.70;;;6.10;;
10260;SDS011;5175;42.606;23.388;2023-04-24T13:10:49;9.20;;;7.43;;
10260;SDS011;5175;42.606;23.388;2023-04-24T13:13:17;6.80;;;6.20;;
10260;SDS011;5175;42.606;23.388;2023-04-24T13:15:44;7.37;;;6.17;;
10260;SDS011;5175;42.606;23.388;2023-04-24T13:18:11;8.07;;;5.87;;
10260;SDS011;5175;42.606;23.388;2023-04-24T13:20:37;6.73;;;6.13;;
10260;SDS011;5175;42.606;23.388;2023-04-24T13:23:06;6.53;;;5.73;;
10260;SDS011;5175;42.606;23.388;2023-04-24T13:25:34;6.50;;;5.90;;
10260;SDS011;5175;42.606;23.388;2023-04-24T13:28:03;8.40;;;6.00;;
10260;SDS011;5175;42.606;23.388;2023-04-24T13:30:31;6.80;;;6.10;;
10260;SDS011;5175;42.606;23.388;2023-04-24T13:32:58;6.87;;;6.20;;
10260;SDS011;5175;42.606;23.388;2023-04-24T13:35:25;7.23;;;6.53;;
10260;SDS011;5175;42.606;23.388;2023-04-24T13:37:52;6.70;;;6.10;;
10260;SDS011;5175;42.606;23.388;2023-04-24T13:40:19;9.32;;;6.18;;
10260;SDS011;5175;42.606;23.388;2023-04-24T13:42:46;8.85;;;6.05;;
10260;SDS011;5175;42.606;23.388;2023-04-24T13:45:14;7.43;;;5.88;;
10260;SDS011;5175;42.606;23.388;2023-04-24T13:47:41;7.15;;;5.60;;
10260;SDS011;5175;42.606;23.388;2023-04-24T13:50:08;6.68;;;5.10;;
10260;SDS011;5175;42.606;23.388;2023-04-24T13:52:35;5.30;;;4.80;;
10260;SDS011;5175;42.606;23.388;2023-04-24T13:55:02;7.55;;;5.75;;
10260;SDS011;5175;42.606;23.388;2023-04-24T13:57:30;6.55;;;5.95;;
10260;SDS011;5175;42.606;23.388;2023-04-24T13:59:57;6.78;;;6.10;;
10260;SDS011;5175;42.606;23.388;2023-04-24T14:02:27;6.72;;;6.07;;
10260;SDS011;5175;42.606;23.388;2023-04-24T14:04:54;6.40;;;5.80;;
10260;SDS011;5175;42.606;23.388;2023-04-24T14:07:21;7.70;;;5.75;;
10260;SDS011;5175;42.606;23.388;2023-04-24T14:09:48;6.25;;;5.63;;
10260;SDS011;5175;42.606;23.388;2023-04-24T14:12:16;5.55;;;5.10;;
10260;SDS011;5175;42.606;23.388;2023-04-24T14:14:44;5.55;;;5.00;;
10260;SDS011;5175;42.606;23.388;2023-04-24T14:17:13;6.68;;;5.30;;
10260;SDS011;5175;42.606;23.388;2023-04-24T14:19:41;5.38;;;4.88;;
10260;SDS011;5175;42.606;23.388;2023-04-24T14:22:08;6.57;;;4.72;;
10260;SDS011;5175;42.606;23.388;2023-04-24T14:24:35;5.47;;;4.80;;
10260;SDS011;5175;42.606;23.388;2023-04-24T14:27:01;4.82;;;4.25;;
10260;SDS011;5175;42.606;23.388;2023-04-24T14:29:28;4.28;;;3.47;;
10260;SDS011;5175;42.606;23.388;2023-04-24T14:31:55;5.55;;;3.83;;
10260;SDS011;5175;42.606;23.388;2023-04-24T14:34:22;5.00;;;3.70;;
10260;SDS011;5175;42.606;23.388;2023-04-24T14:36:52;4.07;;;3.78;;
10260;SDS011;5175;42.606;23.388;2023-04-24T14:39:19;4.32;;;3.90;;
10260;SDS011;5175;42.606;23.388;2023-04-24T14:41:46;4.53;;;4.13;;
10260;SDS011;5175;42.606;23.388;2023-04-24T14:44:13;4.70;;;4.30;;
10260;SDS011;5175;42.606;23.388;2023-04-24T14:46:40;5.43;;;4.20;;
10260;SDS011;5175;42.606;23.388;2023-04-24T14:49:07;6.55;;;4.55;;
10260;SDS011;5175;42.606;23.388;2023-04-24T14:51:35;5.43;;;4.93;;